Terminal Aerodrome Forecast
Issued by NWS Blacksburg, VA

Home | Current Version | Previous Version | Text Only | Print | Product List | Glossary On
Versions: 1 2 3 4 5 6 7 8 9 10 11 12 13 14 15 16 17 18 19 20 21 22 23 24 25 26 27 28 29 30 31
000
FTUS41 KRNK 041122
TAFROA
TAF
KROA 041122Z 0412/0512 28005KT P6SM SCT070 SCT250
     FM041400 27010G17KT P6SM SCT050
     FM050000 30008KT P6SM SCT250
     FM050600 29003KT P6SM BKN250=

USA.gov is the U.S. government's official web portal to all federal, state and local government web resources and services.